Time;durP1;ratioP1;P1;durP2;ratioP2;P2;SDS_P1;SDS_P2;PMS_P1;PMS_P2;Temp;Humidity;BMP_temperature;BMP_pressure;BME280_temperature;BME280_humidity;BME280_pressure;Samples;Min_cycle;Max_cycle;Signal;HPM_P1;HPM_P2
2022/03/14 00:00:10;;;;;;;20.13;10.47;;;1.10;1.00;;;;;;5106525;28;20196;-73
2022/03/14 00:02:39;;;;;;;19.47;11.37;;;0.80;1.00;;;;;;5113676;28;20197;-73
2022/03/14 00:05:06;;;;;;;23.53;12.20;;;0.80;1.00;;;;;;5110302;28;20725;-73
2022/03/14 00:07:36;;;;;;;23.13;11.43;;;0.80;1.00;;;;;;5124126;28;20192;-73
2022/03/14 00:10:03;;;;;;;24.07;11.63;;;0.90;1.00;;;;;;5113163;28;20273;-73
2022/03/14 00:12:31;;;;;;;20.53;11.03;;;0.80;1.00;;;;;;5105916;28;20677;-73
2022/03/14 00:14:58;;;;;;;19.03;10.37;;;0.70;1.00;;;;;;5109535;28;20193;-73
2022/03/14 00:17:27;;;;;;;23.27;11.53;;;0.80;1.00;;;;;;5110653;28;20546;-73
2022/03/14 00:19:59;;;;;;;20.40;10.43;;;0.80;99.90;;;;;;5110230;28;20251;-73
2022/03/14 00:22:26;;;;;;;18.63;10.43;;;1.00;99.90;;;;;;5108617;28;20289;-72
2022/03/14 00:24:53;;;;;;;20.00;10.47;;;1.00;99.90;;;;;;5111164;28;20692;-72
2022/03/14 00:27:20;;;;;;;18.33;9.53;;;1.00;99.90;;;;;;5095002;28;20208;-73
2022/03/14 00:29:47;;;;;;;20.80;11.27;;;1.10;99.90;;;;;;5097515;28;20193;-73
2022/03/14 00:32:14;;;;;;;19.93;11.50;;;1.00;99.90;;;;;;5107109;28;20197;-73
2022/03/14 00:34:41;;;;;;;19.33;9.83;;;1.10;99.90;;;;;;5098884;28;20200;-73
2022/03/14 00:37:09;;;;;;;18.50;10.70;;;1.10;99.90;;;;;;5118813;27;20545;-73
2022/03/14 00:39:36;;;;;;;19.77;10.67;;;0.70;1.00;;;;;;5107136;28;20674;-72
2022/03/14 00:42:03;;;;;;;18.73;10.13;;;0.50;99.90;;;;;;5104316;28;20246;-72
2022/03/14 00:44:30;;;;;;;19.97;10.97;;;0.30;1.00;;;;;;5102840;27;20222;-72
2022/03/14 00:46:57;;;;;;;17.43;9.87;;;0.40;99.90;;;;;;5106852;27;20205;-72
2022/03/14 00:49:24;;;;;;;21.37;10.27;;;0.40;2.60;;;;;;5115751;28;20207;-72
2022/03/14 00:51:51;;;;;;;18.83;10.20;;;0.50;1.00;;;;;;5105829;28;20198;-72
2022/03/14 00:54:19;;;;;;;19.07;10.43;;;0.40;1.00;;;;;;5094340;28;20205;-72
2022/03/14 00:56:46;;;;;;;21.93;11.47;;;0.40;62.40;;;;;;5111518;27;20197;-72
2022/03/14 00:59:13;;;;;;;20.60;11.23;;;0.50;55.20;;;;;;5114046;28;20205;-73
2022/03/14 01:01:40;;;;;;;22.43;11.07;;;0.40;1.00;;;;;;5105212;27;20194;-73
2022/03/14 01:04:06;;;;;;;19.97;11.33;;;0.50;99.90;;;;;;5113661;28;20228;-73
2022/03/14 01:06:34;;;;;;;19.03;10.40;;;0.30;99.90;;;;;;5123676;27;20555;-72
2022/03/14 01:09:00;;;;;;;20.70;11.13;;;0.30;1.00;;;;;;5106917;27;20563;-72
2022/03/14 01:11:29;;;;;;;20.43;10.77;;;0.30;1.00;;;;;;5123423;27;20204;-73
2022/03/14 01:13:56;;;;;;;20.33;10.73;;;0.30;1.00;;;;;;5134391;27;20196;-72
2022/03/14 01:16:23;;;;;;;18.80;10.13;;;0.40;1.00;;;;;;5130193;27;20651;-73
2022/03/14 01:18:49;;;;;;;21.27;10.87;;;0.40;1.00;;;;;;5101668;27;20209;-73
2022/03/14 01:21:16;;;;;;;18.77;10.53;;;0.40;99.90;;;;;;5109169;27;20678;-73
2022/03/14 01:23:43;;;;;;;21.90;11.57;;;0.20;1.00;;;;;;5123370;27;20208;-73
2022/03/14 01:26:10;;;;;;;21.03;11.13;;;0.30;1.00;;;;;;5118786;27;20224;-73
2022/03/14 01:28:38;;;;;;;20.10;10.97;;;0.30;1.00;;;;;;5113270;28;20212;-72
2022/03/14 01:31:05;;;;;;;21.17;11.50;;;0.20;1.00;;;;;;5119532;27;20201;-72
2022/03/14 01:33:32;;;;;;;21.87;11.23;;;0.20;1.00;;;;;;5107147;27;20201;-73
2022/03/14 01:35:58;;;;;;;18.77;11.13;;;0.40;1.00;;;;;;5107461;27;20193;-73
2022/03/14 01:38:25;;;;;;;20.73;11.13;;;0.90;99.90;;;;;;5134359;27;20211;-73
2022/03/14 01:40:52;;;;;;;22.87;11.37;;;1.50;99.90;;;;;;5125210;27;20197;-72
2022/03/14 01:43:24;;;;;;;23.60;11.87;;;1.50;1.00;;;;;;5114271;27;20204;-73
2022/03/14 01:45:56;;;;;;;18.73;10.93;;;1.50;1.00;;;;;;5126564;27;20670;-73
2022/03/14 01:48:24;;;;;;;19.27;10.73;;;1.20;1.00;;;;;;5104519;27;20292;-73
2022/03/14 01:50:51;;;;;;;22.63;11.97;;;1.20;1.00;;;;;;5123483;27;20206;-73
2022/03/14 01:53:18;;;;;;;20.83;10.60;;;0.80;1.00;;;;;;5132642;27;20215;-73
2022/03/14 01:55:46;;;;;;;22.93;11.53;;;0.30;1.00;;;;;;5120525;27;20248;-72
2022/03/14 01:58:13;;;;;;;20.60;11.47;;;0.20;1.00;;;;;;5110450;27;20213;-73
2022/03/14 02:00:41;;;;;;;23.20;12.23;;;0.30;99.90;;;;;;5116787;27;20207;-72
2022/03/14 02:03:09;;;;;;;20.73;11.67;;;0.30;1.00;;;;;;5111713;27;20270;-73
2022/03/14 02:05:37;;;;;;;21.33;11.80;;;0.20;1.00;;;;;;5115831;27;20300;-73
2022/03/14 02:08:05;;;;;;;21.97;11.90;;;0.20;99.90;;;;;;5131156;27;20259;-72
2022/03/14 02:10:34;;;;;;;20.20;11.17;;;0.00;55.40;;;;;;5130081;27;20227;-72
2022/03/14 02:13:05;;;;;;;21.73;12.50;;;0.00;99.90;;;;;;5110909;27;20598;-72
2022/03/14 02:15:31;;;;;;;22.53;11.17;;;0.30;99.90;;;;;;5118613;27;20218;-72
2022/03/14 02:17:58;;;;;;;18.63;11.83;;;0.40;99.90;;;;;;5114928;27;20669;-72
2022/03/14 02:20:27;;;;;;;19.87;11.33;;;0.50;1.00;;;;;;5102214;27;20199;-72
2022/03/14 02:22:53;;;;;;;21.90;12.07;;;0.30;99.90;;;;;;5132060;27;20207;-72
2022/03/14 02:25:20;;;;;;;22.33;11.33;;;0.20;1.00;;;;;;5129945;27;20209;-72
2022/03/14 02:27:47;;;;;;;21.30;11.67;;;0.30;58.20;;;;;;5125907;27;20204;-73
2022/03/14 02:30:14;;;;;;;19.50;11.17;;;0.10;1.00;;;;;;5114834;27;20208;-72
2022/03/14 02:32:42;;;;;;;21.87;12.00;;;0.10;99.90;;;;;;5117638;27;20198;-72
2022/03/14 02:35:09;;;;;;;23.03;12.47;;;0.00;1.00;;;;;;5093182;28;20205;-72
2022/03/14 02:37:38;;;;;;;20.73;10.90;;;0.10;1.00;;;;;;5122995;27;20658;-72
2022/03/14 02:40:07;;;;;;;20.53;11.03;;;0.10;1.00;;;;;;5134375;27;20204;-73
2022/03/14 02:42:34;;;;;;;19.97;11.10;;;0.10;1.00;;;;;;5111877;27;20201;-72
2022/03/14 02:45:02;;;;;;;20.13;11.80;;;0.10;1.00;;;;;;5113649;28;20586;-72
2022/03/14 02:47:29;;;;;;;21.40;11.50;;;0.40;1.00;;;;;;5114353;27;20200;-72
2022/03/14 02:49:56;;;;;;;21.20;11.40;;;0.30;99.90;;;;;;5112565;28;20667;-72
2022/03/14 02:52:23;;;;;;;21.93;12.67;;;0.30;1.00;;;;;;5127215;27;20651;-72
2022/03/14 02:54:52;;;;;;;21.33;11.50;;;0.40;99.90;;;;;;5094149;27;20649;-72
2022/03/14 02:57:19;;;;;;;21.70;11.43;;;0.40;99.90;;;;;;5112844;27;20284;-72
2022/03/14 02:59:48;;;;;;;21.93;11.83;;;0.40;99.90;;;;;;5133756;27;20251;-72
2022/03/14 03:02:18;;;;;;;21.17;12.63;;;0.40;99.90;;;;;;5125062;27;20200;-72
2022/03/14 03:04:45;;;;;;;21.20;12.57;;;0.50;99.90;;;;;;5112811;28;20216;-72
2022/03/14 03:07:11;;;;;;;21.37;12.07;;;0.40;10.80;;;;;;5113013;27;20576;-72
2022/03/14 03:09:38;;;;;;;23.63;12.37;;;0.40;1.00;;;;;;5098787;28;20209;-72
2022/03/14 03:12:10;;;;;;;22.87;12.43;;;0.50;1.00;;;;;;5101321;27;20637;-72
2022/03/14 03:14:36;;;;;;;20.60;11.13;;;0.60;99.90;;;;;;5102143;27;20234;-72
2022/03/14 03:17:04;;;;;;;20.03;11.87;;;0.60;99.90;;;;;;5109112;27;20195;-72
2022/03/14 03:19:31;;;;;;;20.23;11.57;;;0.50;1.00;;;;;;5112710;28;20197;-72
2022/03/14 03:21:58;;;;;;;20.50;11.57;;;0.40;61.60;;;;;;5111533;27;20655;-72
2022/03/14 03:24:24;;;;;;;22.57;12.30;;;0.50;55.70;;;;;;5111379;27;20201;-72
2022/03/14 03:26:51;;;;;;;19.47;10.60;;;0.40;99.90;;;;;;5116119;27;20192;-72
2022/03/14 03:29:20;;;;;;;18.97;11.27;;;0.50;99.90;;;;;;5130558;27;20261;-72
2022/03/14 03:31:46;;;;;;;20.10;10.80;;;0.40;1.00;;;;;;5124040;27;20276;-72
2022/03/14 03:34:13;;;;;;;21.70;11.53;;;0.40;1.00;;;;;;5130765;27;20206;-72
2022/03/14 03:36:40;;;;;;;22.17;10.93;;;0.40;1.00;;;;;;5130762;27;20196;-73
2022/03/14 03:39:07;;;;;;;22.40;10.93;;;0.60;1.00;;;;;;5112025;27;20197;-72
2022/03/14 03:41:34;;;;;;;19.60;11.27;;;0.70;1.00;;;;;;5092591;28;20300;-72
2022/03/14 03:44:00;;;;;;;19.30;10.30;;;0.70;1.00;;;;;;5127184;27;20572;-72
2022/03/14 03:46:29;;;;;;;17.77;10.20;;;0.40;99.90;;;;;;5131267;28;20220;-72
2022/03/14 03:48:55;;;;;;;20.67;10.70;;;0.40;99.90;;;;;;5128857;28;20654;-72
2022/03/14 03:51:22;;;;;;;18.03;10.67;;;0.60;99.90;;;;;;5132572;28;20208;-72
2022/03/14 03:53:50;;;;;;;21.33;10.97;;;0.60;99.90;;;;;;5114398;28;20556;-72
2022/03/14 03:56:17;;;;;;;18.67;10.60;;;0.60;99.90;;;;;;5112655;28;20211;-73
2022/03/14 03:58:44;;;;;;;21.07;10.60;;;0.70;50.90;;;;;;5113634;28;20818;-73
2022/03/14 04:01:12;;;;;;;21.20;10.93;;;0.70;1.00;;;;;;5112495;28;20216;-73
2022/03/14 04:03:40;;;;;;;18.70;10.53;;;0.60;99.90;;;;;;5119559;28;20650;-71
2022/03/14 04:06:07;;;;;;;20.80;12.30;;;0.50;99.90;;;;;;5112323;28;20213;-72
2022/03/14 04:08:34;;;;;;;19.47;11.10;;;0.60;99.90;;;;;;5124982;27;20212;-72
2022/03/14 04:11:04;;;;;;;18.20;10.67;;;0.60;99.90;;;;;;5119434;27;20569;-72
2022/03/14 04:13:31;;;;;;;19.17;10.20;;;0.60;99.90;;;;;;5124754;27;20690;-72
2022/03/14 04:15:59;;;;;;;20.10;10.30;;;0.60;1.00;;;;;;5114661;28;20197;-72
2022/03/14 04:18:26;;;;;;;19.87;11.30;;;0.50;1.00;;;;;;5114034;27;20204;-71
2022/03/14 04:20:55;;;;;;;20.40;11.10;;;0.40;99.90;;;;;;5114529;28;20199;-72
2022/03/14 04:23:23;;;;;;;18.50;10.77;;;0.30;1.00;;;;;;5094902;28;20259;-72
2022/03/14 04:25:50;;;;;;;19.30;11.37;;;0.30;1.00;;;;;;5095732;28;20267;-72
2022/03/14 04:28:17;;;;;;;22.23;11.13;;;0.40;1.00;;;;;;5115480;28;20201;-72
2022/03/14 04:30:44;;;;;;;21.07;11.00;;;0.30;1.00;;;;;;5113026;28;20567;-72
2022/03/14 04:33:11;;;;;;;21.73;10.63;;;0.20;1.00;;;;;;5120000;27;20192;-72
2022/03/14 04:35:38;;;;;;;20.30;11.50;;;0.30;1.00;;;;;;5136837;27;20192;-72
2022/03/14 04:38:07;;;;;;;25.03;12.23;;;0.10;1.00;;;;;;5127680;27;20666;-72
2022/03/14 04:40:34;;;;;;;21.60;11.10;;;0.00;1.00;;;;;;5136141;27;20201;-72
2022/03/14 04:43:04;;;;;;;21.13;11.00;;;0.10;74.30;;;;;;5125641;27;20204;-72
2022/03/14 04:45:32;;;;;;;21.53;11.10;;;0.00;1.00;;;;;;5135365;27;20617;-73
2022/03/14 04:47:59;;;;;;;21.17;10.70;;;0.00;36.80;;;;;;5128333;27;20211;-73
2022/03/14 04:50:26;;;;;;;18.33;10.20;;;-0.10;42.70;;;;;;5136266;27;20647;-73
2022/03/14 04:52:53;;;;;;;21.07;11.73;;;-0.10;4.30;;;;;;5128364;27;20193;-73
2022/03/14 04:55:21;;;;;;;20.23;10.97;;;0.10;99.90;;;;;;5133670;27;20283;-73
2022/03/14 04:57:48;;;;;;;18.17;11.03;;;0.10;99.90;;;;;;5133923;27;20639;-72
2022/03/14 05:00:17;;;;;;;23.20;11.93;;;0.00;99.90;;;;;;5134662;27;20203;-73
2022/03/14 05:02:44;;;;;;;17.83;10.60;;;-0.10;99.90;;;;;;5127743;27;20197;-73
2022/03/14 05:05:11;;;;;;;20.93;12.03;;;0.10;99.90;;;;;;5116557;27;20668;-72
2022/03/14 05:07:38;;;;;;;21.97;11.80;;;0.10;99.90;;;;;;5115755;27;20247;-72
2022/03/14 05:10:07;;;;;;;20.67;10.83;;;0.10;1.00;;;;;;5123867;27;20197;-72
2022/03/14 05:12:35;;;;;;;21.77;11.50;;;0.10;1.00;;;;;;5101167;27;20197;-72
2022/03/14 05:15:03;;;;;;;21.87;10.83;;;0.10;1.00;;;;;;5114435;28;20207;-72
2022/03/14 05:17:30;;;;;;;22.60;11.20;;;0.10;1.00;;;;;;5112604;27;20208;-72
2022/03/14 05:19:57;;;;;;;20.90;11.40;;;0.30;1.00;;;;;;5114856;27;20207;-72
2022/03/14 05:22:24;;;;;;;21.70;11.47;;;0.30;1.00;;;;;;5119069;27;20223;-72
2022/03/14 05:24:51;;;;;;;21.90;11.63;;;0.10;1.00;;;;;;5133256;27;20204;-72
2022/03/14 05:27:18;;;;;;;20.73;10.73;;;0.10;99.90;;;;;;5127178;27;20217;-72
2022/03/14 05:29:46;;;;;;;19.97;11.40;;;0.30;99.90;;;;;;5118370;27;20568;-72
2022/03/14 05:32:13;;;;;;;21.90;12.53;;;0.40;17.60;;;;;;5109068;28;20205;-72
2022/03/14 05:34:40;;;;;;;23.77;13.87;;;0.40;1.00;;;;;;5125677;27;20287;-71
2022/03/14 05:37:07;;;;;;;22.97;11.33;;;0.60;1.00;;;;;;5122722;27;20286;-72
2022/03/14 05:39:33;;;;;;;26.27;12.80;;;0.70;1.00;;;;;;5118152;27;20200;-72
2022/03/14 05:42:01;;;;;;;28.97;11.93;;;0.60;1.00;;;;;;5123659;27;20192;-72
2022/03/14 05:44:27;;;;;;;32.83;13.70;;;0.80;1.00;;;;;;5119294;27;20240;-72
2022/03/14 05:46:56;;;;;;;45.00;12.63;;;0.70;1.00;;;;;;5119683;27;20212;-72
2022/03/14 05:49:23;;;;;;;31.73;12.57;;;0.80;1.00;;;;;;5128038;27;20196;-72
2022/03/14 05:51:50;;;;;;;40.90;12.50;;;0.90;1.00;;;;;;5127549;27;20579;-72
2022/03/14 05:54:16;;;;;;;41.90;13.90;;;0.90;1.00;;;;;;5114910;27;20213;-72
2022/03/14 05:56:46;;;;;;;36.80;14.10;;;1.00;1.00;;;;;;5111293;27;20192;-72
2022/03/14 05:59:13;;;;;;;33.30;12.63;;;1.10;1.00;;;;;;5129701;27;20208;-72
2022/03/14 06:01:40;;;;;;;30.37;12.93;;;1.10;99.90;;;;;;5126941;27;20566;-72
2022/03/14 06:04:09;;;;;;;33.97;12.40;;;1.20;1.00;;;;;;5115247;27;20617;-72
2022/03/14 06:06:38;;;;;;;31.13;12.97;;;1.30;99.90;;;;;;5132869;27;20212;-72
2022/03/14 06:09:04;;;;;;;20.73;10.80;;;1.40;99.90;;;;;;5132476;27;20196;-70
2022/03/14 06:11:31;;;;;;;27.90;12.87;;;1.60;1.00;;;;;;5113620;27;20212;-71
2022/03/14 06:13:58;;;;;;;18.90;11.53;;;1.90;1.00;;;;;;5102147;27;20280;-71
2022/03/14 06:16:26;;;;;;;22.13;11.47;;;1.80;1.00;;;;;;5113347;28;20249;-71
2022/03/14 06:18:53;;;;;;;20.27;11.67;;;1.80;1.00;;;;;;5103094;27;20197;-67
2022/03/14 06:21:21;;;;;;;19.23;11.60;;;2.00;1.00;;;;;;5113967;27;20212;-68
2022/03/14 06:23:47;;;;;;;20.80;12.07;;;1.90;1.00;;;;;;5129759;27;20197;-68
2022/03/14 06:26:15;;;;;;;21.10;12.27;;;2.00;1.00;;;;;;5134613;27;20216;-68
2022/03/14 06:28:41;;;;;;;23.87;12.00;;;2.00;1.00;;;;;;5106700;27;20202;-68
2022/03/14 06:31:10;;;;;;;22.23;11.90;;;2.10;1.00;;;;;;5128184;27;20193;-68
2022/03/14 06:33:37;;;;;;;22.83;11.47;;;2.30;1.00;;;;;;5104779;27;20204;-68
2022/03/14 06:36:04;;;;;;;22.60;11.63;;;2.40;1.00;;;;;;5118840;27;20211;-68
2022/03/14 06:38:33;;;;;;;20.47;12.00;;;2.40;99.90;;;;;;5104850;27;20199;-68
2022/03/14 06:41:00;;;;;;;26.77;11.90;;;2.50;99.90;;;;;;5113199;27;20601;-68
2022/03/14 06:43:28;;;;;;;23.27;11.87;;;2.50;1.00;;;;;;5111703;27;20224;-68
2022/03/14 06:45:55;;;;;;;23.90;12.63;;;2.60;1.00;;;;;;5112262;27;20217;-68
2022/03/14 06:48:22;;;;;;;22.77;12.20;;;2.70;1.00;;;;;;5112741;27;20193;-68
2022/03/14 06:50:49;;;;;;;26.43;12.50;;;2.80;1.00;;;;;;5120324;27;20666;-68
2022/03/14 06:53:17;;;;;;;24.43;12.40;;;2.80;1.00;;;;;;5120922;27;20205;-67
2022/03/14 06:55:45;;;;;;;23.57;12.03;;;2.80;1.00;;;;;;5131582;27;20197;-68
2022/03/14 06:58:12;;;;;;;23.37;12.23;;;2.90;1.00;;;;;;5128690;27;20222;-68
2022/03/14 07:00:40;;;;;;;20.47;11.97;;;3.00;1.00;;;;;;5125406;27;20189;-68
2022/03/14 07:03:07;;;;;;;21.77;12.03;;;3.20;1.00;;;;;;5103361;28;20212;-68
2022/03/14 07:05:34;;;;;;;21.07;11.50;;;3.50;99.90;;;;;;5108066;27;20197;-68
2022/03/14 07:08:00;;;;;;;22.80;13.07;;;3.60;99.90;;;;;;5111933;27;20283;-68
2022/03/14 07:10:30;;;;;;;20.80;11.27;;;3.80;99.90;;;;;;5099702;27;20217;-68
2022/03/14 07:12:58;;;;;;;24.03;12.03;;;3.90;99.90;;;;;;5103914;27;20200;-68
2022/03/14 07:15:26;;;;;;;23.40;11.90;;;4.10;1.00;;;;;;5113434;27;20644;-69
2022/03/14 07:17:53;;;;;;;19.70;10.10;;;4.30;1.00;;;;;;5117662;27;20669;-68
2022/03/14 07:20:22;;;;;;;17.23;10.37;;;4.80;99.90;;;;;;5108040;27;20375;-68
2022/03/14 07:22:51;;;;;;;17.80;10.37;;;5.40;1.00;;;;;;5112128;28;20201;-68
2022/03/14 07:25:23;;;;;;;19.43;10.13;;;5.70;1.00;;;;;;5112839;28;20201;-68
2022/03/14 07:27:49;;;;;;;17.37;9.83;;;6.00;1.00;;;;;;5121647;27;20220;-68
2022/03/14 07:30:18;;;;;;;18.27;10.30;;;6.10;1.00;;;;;;5112161;28;20204;-69
2022/03/14 07:32:44;;;;;;;18.57;11.03;;;6.20;1.00;;;;;;5113067;28;20192;-68
2022/03/14 07:35:13;;;;;;;20.57;10.50;;;6.30;1.00;;;;;;5124792;27;20313;-68
2022/03/14 07:37:40;;;;;;;19.07;10.80;;;6.50;1.00;;;;;;5112417;28;20207;-68
2022/03/14 07:40:08;;;;;;;19.23;10.03;;;6.60;1.00;;;;;;5113741;28;20209;-68
2022/03/14 07:42:40;;;;;;;17.57;10.40;;;6.60;1.00;;;;;;5092334;28;20559;-68
2022/03/14 07:45:09;;;;;;;18.57;10.70;;;6.70;1.00;;;;;;5108796;27;20199;-69
2022/03/14 07:47:39;;;;;;;17.23;10.63;;;6.80;1.00;;;;;;5111455;28;20278;-68
2022/03/14 07:50:08;;;;;;;17.03;10.27;;;6.90;1.00;;;;;;5096266;28;20236;-68
2022/03/14 07:52:36;;;;;;;20.33;11.07;;;7.00;1.00;;;;;;5115571;28;20201;-68
2022/03/14 07:55:03;;;;;;;18.57;10.40;;;7.00;1.00;;;;;;5108782;28;20212;-68
2022/03/14 07:57:31;;;;;;;20.10;10.43;;;7.10;1.00;;;;;;5116174;28;20223;-68
2022/03/14 07:59:59;;;;;;;23.30;10.93;;;7.20;1.00;;;;;;5129228;28;20204;-68
2022/03/14 08:02:26;;;;;;;19.93;10.40;;;7.40;1.00;;;;;;5094773;28;20575;-68
2022/03/14 08:04:54;;;;;;;19.10;10.57;;;7.40;1.00;;;;;;5091504;28;20672;-68
2022/03/14 08:07:21;;;;;;;19.27;11.10;;;7.50;1.00;;;;;;5126245;28;20512;-68
2022/03/14 08:09:48;;;;;;;18.43;11.67;;;7.60;1.00;;;;;;5091789;28;20669;-68
2022/03/14 08:12:15;;;;;;;18.47;10.83;;;7.60;1.00;;;;;;5091730;28;20210;-68
2022/03/14 08:14:42;;;;;;;17.80;10.47;;;7.80;1.00;;;;;;5091858;28;20210;-68
2022/03/14 08:17:09;;;;;;;19.50;11.50;;;7.90;1.00;;;;;;5097798;28;20193;-68
2022/03/14 08:19:36;;;;;;;18.20;10.83;;;8.00;1.00;;;;;;5132577;28;20222;-68
2022/03/14 08:22:04;;;;;;;19.20;11.60;;;8.00;1.00;;;;;;5120722;28;20204;-68
2022/03/14 08:24:32;;;;;;;24.37;12.07;;;8.10;1.00;;;;;;5091769;28;20204;-68
2022/03/14 08:26:59;;;;;;;18.80;10.17;;;8.20;1.00;;;;;;5090709;28;20233;-68
2022/03/14 08:29:26;;;;;;;21.17;11.60;;;8.20;1.00;;;;;;5128107;28;20564;-68
2022/03/14 08:31:52;;;;;;;22.23;11.90;;;8.20;1.00;;;;;;5132736;28;20200;-69
2022/03/14 08:34:20;;;;;;;18.83;11.33;;;8.30;1.00;;;;;;5093009;28;20209;-68
2022/03/14 08:36:47;;;;;;;18.67;11.13;;;8.30;1.00;;;;;;5111137;28;20204;-69
2022/03/14 08:39:15;;;;;;;21.90;11.80;;;8.30;1.00;;;;;;5132518;28;20208;-68
2022/03/14 08:41:42;;;;;;;22.93;12.10;;;8.30;1.00;;;;;;5126879;28;20204;-68
2022/03/14 08:44:09;;;;;;;20.07;11.60;;;8.30;1.00;;;;;;5096916;28;20318;-68
2022/03/14 08:46:38;;;;;;;23.43;11.37;;;8.50;1.00;;;;;;5104735;28;20273;-68
2022/03/14 08:49:04;;;;;;;19.77;12.40;;;8.50;1.00;;;;;;5097997;28;20209;-68
2022/03/14 08:51:31;;;;;;;23.50;11.70;;;8.60;1.00;;;;;;5099157;28;20284;-68
2022/03/14 08:53:58;;;;;;;19.70;11.93;;;8.70;1.00;;;;;;5101485;28;20206;-68
2022/03/14 08:56:26;;;;;;;18.93;11.13;;;8.90;21.80;;;;;;5097350;27;20319;-68
2022/03/14 08:58:53;;;;;;;19.57;11.20;;;8.90;99.90;;;;;;5114730;27;20541;-68
2022/03/14 09:01:20;;;;;;;21.57;12.23;;;9.20;99.90;;;;;;5129427;27;20200;-68
2022/03/14 09:03:47;;;;;;;19.23;11.87;;;9.20;99.90;;;;;;5122213;27;20193;-68
2022/03/14 09:06:13;;;;;;;17.63;11.00;;;9.40;99.90;;;;;;5115652;28;20193;-68
2022/03/14 09:08:40;;;;;;;18.37;9.27;;;9.50;1.00;;;;;;5101170;27;20198;-68
2022/03/14 09:11:07;;;;;;;14.10;8.77;;;9.80;99.90;;;;;;5105466;27;20202;-68
2022/03/14 09:13:35;;;;;;;14.47;8.57;;;9.80;1.00;;;;;;5110224;27;20201;-68
2022/03/14 09:16:04;;;;;;;15.90;9.17;;;10.00;1.00;;;;;;5112127;27;20205;-68
2022/03/14 09:18:31;;;;;;;15.47;8.80;;;10.00;94.40;;;;;;5098353;28;20676;-68
2022/03/14 09:20:58;;;;;;;14.30;9.20;;;9.90;99.90;;;;;;5113140;27;20205;-68
2022/03/14 09:23:27;;;;;;;14.93;8.83;;;9.90;1.00;;;;;;5099521;27;20198;-68
2022/03/14 09:25:57;;;;;;;13.27;8.07;;;9.80;1.00;;;;;;5111313;27;20196;-68
2022/03/14 09:28:24;;;;;;;14.37;8.37;;;9.80;1.00;;;;;;5107899;27;20563;-69
2022/03/14 09:30:52;;;;;;;13.03;8.10;;;9.80;1.00;;;;;;5103227;28;20288;-68
2022/03/14 09:33:19;;;;;;;14.60;9.03;;;9.80;1.00;;;;;;5109091;28;20205;-68
2022/03/14 09:35:45;;;;;;;14.73;8.80;;;9.80;1.00;;;;;;5102466;28;20201;-68
2022/03/14 09:38:15;;;;;;;11.97;8.17;;;9.80;1.00;;;;;;5107000;27;20734;-69
2022/03/14 09:40:44;;;;;;;14.63;8.67;;;9.90;1.00;;;;;;5102243;27;20206;-68
2022/03/14 09:43:11;;;;;;;14.00;8.10;;;9.90;1.00;;;;;;5113247;27;20217;-69
2022/03/14 09:45:39;;;;;;;16.27;8.67;;;9.80;1.00;;;;;;5100686;28;20205;-68
2022/03/14 09:48:11;;;;;;;12.30;8.13;;;9.70;1.00;;;;;;5107339;28;20587;-68
2022/03/14 09:50:40;;;;;;;12.97;8.13;;;9.80;1.00;;;;;;5105516;28;20233;-68
2022/03/14 09:53:10;;;;;;;14.17;8.80;;;9.80;1.00;;;;;;5108523;27;20233;-68
2022/03/14 09:55:40;;;;;;;15.57;9.17;;;9.80;1.00;;;;;;5101965;27;20679;-69
2022/03/14 09:58:09;;;;;;;16.10;9.47;;;9.90;1.00;;;;;;5098173;28;20207;-68
2022/03/14 10:00:35;;;;;;;16.87;10.07;;;9.90;1.00;;;;;;5102729;28;20197;-68
2022/03/14 10:03:03;;;;;;;17.60;10.20;;;9.90;99.90;;;;;;5105812;27;20203;-69
2022/03/14 10:05:32;;;;;;;15.83;9.47;;;10.00;22.80;;;;;;5105184;28;20296;-68
2022/03/14 10:07:59;;;;;;;16.73;9.17;;;10.00;1.00;;;;;;5103785;27;20209;-68
2022/03/14 10:10:26;;;;;;;14.23;9.23;;;10.00;7.40;;;;;;5102436;27;20204;-68
2022/03/14 10:12:54;;;;;;;15.73;9.20;;;10.00;1.00;;;;;;5104132;28;20204;-69
2022/03/14 10:15:22;;;;;;;13.90;9.43;;;9.70;1.00;;;;;;5107110;28;20197;-68
2022/03/14 10:17:51;;;;;;;15.07;9.63;;;9.60;99.90;;;;;;5104802;28;20201;-68
2022/03/14 10:20:18;;;;;;;14.67;9.23;;;9.50;99.90;;;;;;5102977;28;20300;-68
2022/03/14 10:22:47;;;;;;;13.03;8.57;;;9.30;1.00;;;;;;5105381;28;20204;-69
2022/03/14 10:25:15;;;;;;;14.97;9.53;;;9.20;1.00;;;;;;5105456;28;20221;-68
2022/03/14 10:27:45;;;;;;;15.80;9.93;;;9.10;1.00;;;;;;5106110;27;20214;-68
2022/03/14 10:30:24;;;;;;;16.13;9.93;;;9.10;99.90;;;;;;5100171;27;20201;-68
2022/03/14 10:32:51;;;;;;;17.47;10.80;;;9.10;99.90;;;;;;5110504;28;20551;-68
2022/03/14 10:35:20;;;;;;;18.13;11.13;;;9.00;1.00;;;;;;5098231;27;20216;-68
2022/03/14 10:37:59;;;;;;;17.87;11.20;;;9.00;1.00;;;;;;5111512;27;20618;-68
2022/03/14 10:40:31;;;;;;;18.37;10.90;;;9.10;1.00;;;;;;5113255;27;20197;-68
2022/03/14 10:42:58;;;;;;;19.53;11.43;;;9.00;1.00;;;;;;5101717;28;20613;-68
2022/03/14 10:45:25;;;;;;;17.40;9.90;;;9.10;1.00;;;;;;5106335;28;20236;-67
2022/03/14 10:47:57;;;;;;;15.20;10.07;;;9.10;1.00;;;;;;5103953;27;20598;-67
2022/03/14 10:50:34;;;;;;;14.97;9.23;;;9.10;1.00;;;;;;5102390;27;20674;-68
2022/03/14 10:53:08;;;;;;;15.30;9.10;;;9.10;1.00;;;;;;5102031;28;20202;-67
2022/03/14 10:55:40;;;;;;;14.80;9.03;;;9.10;1.00;;;;;;5098914;28;20655;-67
2022/03/14 10:58:11;;;;;;;14.17;9.00;;;9.10;1.00;;;;;;5104257;27;20213;-68
2022/03/14 11:00:49;;;;;;;15.17;9.07;;;9.20;1.00;;;;;;5106138;28;20205;-67
2022/03/14 11:03:25;;;;;;;14.93;8.97;;;9.20;1.00;;;;;;5108667;27;20196;-67
2022/03/14 11:05:52;;;;;;;12.97;8.03;;;9.30;1.00;;;;;;5103564;28;20646;-67
2022/03/14 11:08:31;;;;;;;16.00;8.73;;;9.20;1.00;;;;;;5107350;27;20217;-67
2022/03/14 11:11:01;;;;;;;12.57;8.30;;;9.30;1.00;;;;;;5102471;27;20205;-67
2022/03/14 11:13:28;;;;;;;13.00;8.00;;;9.30;1.00;;;;;;5107532;28;20209;-68
2022/03/14 11:15:56;;;;;;;10.53;7.20;;;9.30;1.00;;;;;;5105982;28;20215;-67
2022/03/14 11:18:24;;;;;;;10.17;6.50;;;9.30;1.00;;;;;;5101160;28;20197;-67
2022/03/14 11:20:52;;;;;;;9.37;5.80;;;9.30;1.00;;;;;;5106529;28;20206;-68
2022/03/14 11:23:21;;;;;;;11.23;7.27;;;9.30;1.00;;;;;;5106649;28;20651;-67
2022/03/14 11:25:50;;;;;;;9.87;6.13;;;9.40;1.00;;;;;;5099523;28;20208;-68
2022/03/14 11:28:19;;;;;;;10.70;5.80;;;9.40;1.00;;;;;;5106045;28;20583;-67
2022/03/14 11:30:53;;;;;;;11.33;6.17;;;9.40;1.00;;;;;;5102249;28;20224;-68
2022/03/14 11:33:21;;;;;;;9.70;5.97;;;9.40;1.00;;;;;;5101515;28;20200;-67
2022/03/14 11:35:48;;;;;;;8.83;5.87;;;9.30;1.00;;;;;;5100678;28;20204;-67
2022/03/14 11:38:18;;;;;;;9.37;5.87;;;9.40;47.90;;;;;;5106895;28;20197;-67
2022/03/14 11:40:45;;;;;;;7.97;5.43;;;9.30;45.00;;;;;;5104944;28;20208;-68
2022/03/14 11:43:14;;;;;;;7.27;5.37;;;9.40;99.90;;;;;;5106091;28;20212;-67
2022/03/14 11:45:42;;;;;;;9.13;6.17;;;9.40;99.90;;;;;;5107409;27;20200;-68
2022/03/14 11:48:11;;;;;;;9.97;6.10;;;9.40;99.90;;;;;;5110976;28;20731;-67
2022/03/14 11:50:46;;;;;;;9.87;5.70;;;9.40;99.90;;;;;;5107582;28;20207;-67
2022/03/14 11:53:21;;;;;;;9.33;5.73;;;9.40;99.90;;;;;;5107527;28;20208;-67
2022/03/14 11:55:54;;;;;;;7.17;4.97;;;9.40;99.90;;;;;;5098038;28;20201;-67
2022/03/14 11:58:40;;;;;;;7.60;5.07;;;9.30;99.90;;;;;;5103111;28;20200;-68
2022/03/14 12:01:21;;;;;;;8.43;5.23;;;9.40;99.90;;;;;;5103488;28;20213;-67
2022/03/14 12:03:50;;;;;;;6.40;4.73;;;9.40;99.90;;;;;;5101882;28;20281;-67
2022/03/14 12:06:17;;;;;;;7.17;4.80;;;9.40;99.90;;;;;;5103792;28;20658;-67
2022/03/14 12:08:54;;;;;;;7.73;5.23;;;9.50;99.90;;;;;;5107267;28;20269;-67
2022/03/14 12:11:40;;;;;;;10.00;5.67;;;9.40;99.90;;;;;;5103228;28;20212;-67
2022/03/14 12:14:13;;;;;;;7.43;5.37;;;9.20;99.90;;;;;;5111488;28;20265;-67
2022/03/14 12:16:42;;;;;;;9.50;6.03;;;9.20;99.90;;;;;;5106596;28;20250;-67
2022/03/14 12:19:31;;;;;;;8.67;5.77;;;9.20;99.90;;;;;;5109892;28;20203;-67
2022/03/14 12:21:58;;;;;;;9.57;6.03;;;9.30;99.90;;;;;;5100694;28;20236;-68
2022/03/14 12:24:45;;;;;;;9.53;6.10;;;9.30;99.90;;;;;;5107300;28;20215;-68
2022/03/14 12:27:20;;;;;;;9.97;6.37;;;9.30;99.90;;;;;;5098127;28;20287;-68
2022/03/14 12:29:49;;;;;;;9.80;6.20;;;9.20;99.90;;;;;;5110338;27;20219;-69
2022/03/14 12:32:37;;;;;;;8.93;5.90;;;9.20;99.90;;;;;;5103812;27;20209;-68
2022/03/14 12:35:09;;;;;;;10.40;6.47;;;9.20;99.90;;;;;;5100132;28;20211;-69
2022/03/14 12:37:44;;;;;;;10.57;6.43;;;9.10;99.90;;;;;;5103062;28;20220;-70
2022/03/14 12:40:30;;;;;;;11.73;6.80;;;9.20;99.90;;;;;;5111766;27;20204;-70
2022/03/14 12:43:11;;;;;;;9.90;6.47;;;9.10;99.90;;;;;;5101352;28;20227;-70
2022/03/14 12:45:42;;;;;;;9.30;6.33;;;9.10;99.90;;;;;;5098612;28;20640;-70
2022/03/14 12:48:18;;;;;;;10.87;6.57;;;9.10;99.90;;;;;;5108639;27;20239;-69
2022/03/14 12:50:57;;;;;;;10.40;6.53;;;9.10;99.90;;;;;;5101632;27;20284;-69